D'Hanis, Texas
Current Conditions -  °F | °C
As of 10:51 PM on Tuesday 25 Nov 2014 (Local Time) from KHDO Reporting Station
Clear Clear  
Wind Chill: 39°   Ceiling: Unl
Heat Index: 42°   Visibility: 10mi
Dew Point: 30°   Wind: 5mph
Humidity: 62%   Direction: 260°W
Pressure: 30.25"   Gusts: NA
Location:  29.33°N, 99.28°W
Report Text: KHDO 260451Z AUTO 26004KT 10SM CLR 06/M01 A3025 RMK AO2 SLP239 T00561011
Loading
Personal Weather Stations






























Interactive Weather Map New forecast layout! Learn more

10-Day Weather Forecast

Advertisements
Track Severe Weather on mobile